Pacific Beach, California
Current Conditions -  °F | °C
As of 5:51 PM on Friday 28 Nov 2014 (Local Time) from KSAN Reporting Station
Few Clouds Few Clouds  
Wind Chill: 67°   Ceiling: Unl
Heat Index: 67°   Visibility: 8mi
Dew Point: 60°   Wind: 0mph
Humidity: 79%   Direction: NA
Pressure: 29.9"   Gusts: NA
Location:  32.7984°N, 117.236°W
Report Text: KSAN 290151Z 00000KT 8SM FEW010 19/16 A2990 RMK AO2 SLP125 T01940156
Loading
Personal Weather Stations






























Interactive Weather Map New forecast layout! Learn more

10-Day Weather Forecast

Advertisements
Track Severe Weather on mobile